首页
METAR-TAF:

METAR-TAF

机场 :

Flin Flon, 曼尼托巴, 加拿大

纬度: 54-41N, 经度: 101-41W, 海拔: 304米

当前天气观测

该预报发布于23小时和24分钟前的21:19 UTC
风速11节,风向西,有时为19节阵风
温度 16°C
湿度 94%
气压 995 hPa
能見度: 16.1公里
多云层高于1000英尺
阴天层高于4400英尺
小阵雨

METAR: CYFO 242119Z 28011G19KT 10SM -SHRA BKN010 OVC044 16/15 A2939 RMK SC5SC3 CVCTV CLD EMBD BR SLP959 DENSITY ALT 2000FT

时间: 15:43 (20:43 UTC)


TAF: 丢失

超过4000个机场的气象观测和天气预报(METAR&TAF报告)。

可查询的气象台以黄色和红色小点在地图上表示。

将鼠标移到小点上方,可查看气象台名称。

然后点击查看天气观测和预报。

如需切换地图:点击带黑十字的绿色按钮放大地图;点击带横线的绿色按钮缩小地图;或者点击绿色箭头查看邻近地区的地图。


METAR-TAF: